Time;durP1;ratioP1;P1;durP2;ratioP2;P2;SDS_P1;SDS_P2;PMS_P1;PMS_P2;Temp;Humidity;BMP_temperature;BMP_pressure;BME280_temperature;BME280_humidity;BME280_pressure;Samples;Min_cycle;Max_cycle;Signal;HPM_P1;HPM_P2
2023/09/05 00:01:52;;;;;;;2.80;2.25;;;;;;;16.71;83.95;95044.91;5139047;27;20194;-64
2023/09/05 00:04:19;;;;;;;1.90;1.80;;;;;;;16.70;84.63;95046.06;5121066;27;20206;-64
2023/09/05 00:06:46;;;;;;;1.80;1.70;;;;;;;16.70;84.86;95042.50;5139066;27;20211;-64
2023/09/05 00:09:13;;;;;;;1.95;1.85;;;;;;;16.70;84.50;95040.50;5139110;27;20190;-65
2023/09/05 00:11:40;;;;;;;2.20;2.00;;;;;;;16.69;84.78;95038.13;5139272;27;20183;-64
2023/09/05 00:14:10;;;;;;;1.98;1.88;;;;;;;16.69;84.68;95043.69;5121033;27;20510;-64
2023/09/05 00:16:37;;;;;;;1.70;1.60;;;;;;;16.67;84.80;95034.94;5120644;27;20205;-65
2023/09/05 00:19:04;;;;;;;2.10;1.90;;;;;;;16.67;84.98;95034.94;5121294;27;20179;-65
2023/09/05 00:21:31;;;;;;;2.10;2.00;;;;;;;16.67;84.98;95023.81;5121018;27;20195;-64
2023/09/05 00:24:25;;;;;;;2.03;1.92;;;;;;;16.67;84.92;95024.59;5120924;27;20256;-64
2023/09/05 00:26:52;;;;;;;2.00;1.80;;;;;;;16.66;85.26;95025.78;5120396;27;20646;-64
2023/09/05 00:29:20;;;;;;;1.98;1.88;;;;;;;16.65;84.68;95017.81;5120716;27;20597;-65
2023/09/05 00:31:47;;;;;;;1.77;1.67;;;;;;;16.62;84.49;95019.41;5138718;27;20198;-64
2023/09/05 00:34:14;;;;;;;2.10;2.00;;;;;;;16.58;85.18;95022.19;5103332;27;20217;-65
2023/09/05 00:36:42;;;;;;;2.00;1.80;;;;;;;16.60;85.62;95021.78;5138603;27;20190;-65
2023/09/05 00:39:09;;;;;;;2.13;1.92;;;;;;;16.59;85.51;95017.41;5138499;27;20199;-65
2023/09/05 00:41:37;;;;;;;2.08;1.98;;;;;;;16.62;85.38;95013.84;5120441;27;20205;-65
2023/09/05 00:44:04;;;;;;;1.77;1.67;;;;;;;16.61;85.15;95010.25;5120420;27;20283;-65
2023/09/05 00:46:33;;;;;;;2.10;2.00;;;;;;;16.60;85.30;95005.88;5138337;27;20214;-65
2023/09/05 00:49:02;;;;;;;2.10;2.00;;;;;;;16.60;85.42;95013.44;5138344;27;20251;-65
2023/09/05 00:51:31;;;;;;;2.13;1.92;;;;;;;16.58;85.95;95016.59;5120126;27;20546;-64
2023/09/05 00:53:58;;;;;;;1.98;1.75;;;;;;;16.57;86.06;95015.03;5138093;27;20191;-64
2023/09/05 00:56:25;;;;;;;2.20;1.83;;;;;;;16.59;86.10;95001.50;5119553;27;20187;-64
2023/09/05 00:58:52;;;;;;;3.08;1.70;;;;;;;16.61;85.92;95001.09;5120044;27;20199;-64
2023/09/05 01:01:18;;;;;;;1.90;1.75;;;;;;;16.63;86.26;95011.84;5138303;27;20198;-64
2023/09/05 01:03:47;;;;;;;1.85;1.75;;;;;;;16.63;85.30;95009.06;5138155;27;20240;-65
2023/09/05 01:06:19;;;;;;;1.73;1.50;;;;;;;16.60;85.63;95005.09;5119947;27;20223;-65
2023/09/05 01:08:51;;;;;;;1.92;1.83;;;;;;;16.60;84.99;95011.44;5119983;27;20199;-65
2023/09/05 01:11:19;;;;;;;1.73;1.63;;;;;;;16.62;85.58;95011.03;5137972;27;20187;-64
2023/09/05 01:13:46;;;;;;;1.80;1.70;;;;;;;16.61;85.63;95006.69;5137942;27;20187;-64
2023/09/05 01:16:13;;;;;;;1.80;1.70;;;;;;;16.63;85.17;95015.44;5119921;27;20199;-65
2023/09/05 01:18:40;;;;;;;3.60;2.33;;;;;;;16.60;84.65;95014.25;5119706;27;20195;-65
2023/09/05 01:21:14;;;;;;;3.17;2.88;;;;;;;16.60;84.67;95021.78;5137821;27;20194;-65
2023/09/05 01:23:46;;;;;;;3.25;2.63;;;;;;;16.59;84.27;95023.78;5119688;27;20190;-65
2023/09/05 01:26:14;;;;;;;3.80;2.72;;;;;;;16.61;83.69;95026.97;5137562;27;20230;-65
2023/09/05 01:28:43;;;;;;;2.60;2.13;;;;;;;16.63;84.15;95031.34;5137375;27;20238;-65
2023/09/05 01:31:11;;;;;;;3.13;2.25;;;;;;;16.64;83.61;95033.75;5119636;27;20219;-65
2023/09/05 01:33:39;;;;;;;2.10;2.00;;;;;;;16.66;83.82;95024.97;5119547;27;20582;-65
2023/09/05 01:36:07;;;;;;;2.10;1.98;;;;;;;16.65;83.82;95021.41;5137441;27;20198;-65
2023/09/05 01:38:35;;;;;;;3.33;3.03;;;;;;;16.68;83.84;95011.47;5119352;27;20191;-65
2023/09/05 01:41:02;;;;;;;3.42;3.13;;;;;;;16.67;83.34;95005.13;5119401;27;20191;-65
2023/09/05 01:43:30;;;;;;;3.15;2.50;;;;;;;16.69;83.71;94999.94;5137329;27;20194;-65
2023/09/05 01:45:56;;;;;;;2.60;2.40;;;;;;;16.69;83.83;94997.16;5136852;27;20643;-65
2023/09/05 01:48:23;;;;;;;2.58;2.30;;;;;;;16.68;83.57;95008.69;5136764;27;20175;-65
2023/09/05 01:50:50;;;;;;;2.38;2.17;;;;;;;16.68;82.76;95008.69;5136853;27;20194;-65
2023/09/05 01:53:17;;;;;;;2.65;2.45;;;;;;;16.68;82.27;95001.13;5119082;27;20203;-65
2023/09/05 01:55:43;;;;;;;3.78;2.38;;;;;;;16.69;82.60;94999.94;5136706;27;20190;-65
2023/09/05 01:58:11;;;;;;;3.90;2.92;;;;;;;16.68;82.70;94998.34;5118972;27;20199;-65
2023/09/05 02:00:39;;;;;;;2.60;2.40;;;;;;;16.65;82.44;94996.34;5118809;27;20191;-65
2023/09/05 02:03:06;;;;;;;2.97;2.78;;;;;;;16.65;82.77;95007.47;5136957;27;20190;-65
2023/09/05 02:05:32;;;;;;;2.80;2.33;;;;;;;16.67;82.98;95009.88;5136822;27;20187;-65
2023/09/05 02:07:59;;;;;;;2.42;2.22;;;;;;;16.69;82.99;95013.84;5135630;27;20203;-65
2023/09/05 02:10:26;;;;;;;3.20;2.90;;;;;;;16.70;82.54;95009.06;5136631;27;20179;-65
2023/09/05 02:12:53;;;;;;;2.95;2.70;;;;;;;16.70;82.72;95009.06;5136766;27;20263;-65
2023/09/05 02:15:20;;;;;;;3.50;2.50;;;;;;;16.70;81.99;95015.44;5119112;27;20214;-65
2023/09/05 02:17:48;;;;;;;2.53;2.33;;;;;;;16.70;82.15;95021.00;5136462;27;20587;-65
2023/09/05 02:20:15;;;;;;;3.08;2.88;;;;;;;16.71;82.13;95016.25;5118591;27;20205;-65
2023/09/05 02:22:42;;;;;;;3.88;2.72;;;;;;;16.70;82.17;95031.34;5136329;27;20179;-65
2023/09/05 02:25:11;;;;;;;3.03;2.72;;;;;;;16.71;82.58;95030.19;5136730;27;20324;-65
2023/09/05 02:27:38;;;;;;;2.83;2.53;;;;;;;16.71;82.35;95025.41;5118421;27;20298;-65
2023/09/05 02:30:07;;;;;;;2.95;2.58;;;;;;;16.68;82.13;95031.75;5136426;27;20666;-65
2023/09/05 02:32:34;;;;;;;3.45;3.15;;;;;;;16.67;82.11;95032.16;5136473;27;20179;-65
2023/09/05 02:35:04;;;;;;;3.05;2.75;;;;;;;16.68;82.72;95030.97;5118775;28;20197;-65
2023/09/05 02:37:30;;;;;;;3.35;2.92;;;;;;;16.69;83.53;95024.19;5118524;27;20191;-65
2023/09/05 02:39:56;;;;;;;3.08;2.78;;;;;;;16.68;83.13;95028.97;5118580;27;20263;-65
2023/09/05 02:42:23;;;;;;;2.50;2.30;;;;;;;16.67;83.36;95027.38;5136012;27;20179;-64
2023/09/05 02:44:51;;;;;;;2.65;2.45;;;;;;;16.70;83.47;95028.56;5136113;27;20185;-64
2023/09/05 02:47:18;;;;;;;3.28;2.38;;;;;;;16.70;83.20;95023.78;5136210;27;20276;-64
2023/09/05 02:49:45;;;;;;;2.92;2.60;;;;;;;16.69;83.11;95013.06;5136217;27;20194;-65
2023/09/05 02:52:13;;;;;;;4.03;2.67;;;;;;;16.66;83.06;95017.41;5135971;28;20206;-65
2023/09/05 02:54:40;;;;;;;4.43;3.30;;;;;;;16.65;82.82;95013.06;5136072;28;20294;-65
2023/09/05 02:57:07;;;;;;;4.70;4.25;;;;;;;16.63;82.42;95018.22;5135942;28;20259;-64
2023/09/05 02:59:34;;;;;;;4.85;3.95;;;;;;;16.64;82.09;95016.25;5118177;28;20195;-65
2023/09/05 03:02:00;;;;;;;4.30;3.33;;;;;;;16.61;82.16;95010.25;5118280;28;20191;-65
2023/09/05 03:04:32;;;;;;;3.60;3.30;;;;;;;16.63;82.48;95023.81;5136044;28;20187;-64
2023/09/05 03:07:01;;;;;;;4.40;3.47;;;;;;;16.60;82.35;95028.16;5118845;28;20248;-65
2023/09/05 03:09:29;;;;;;;3.78;3.47;;;;;;;16.63;82.08;95034.13;5118179;28;20240;-64
2023/09/05 03:11:56;;;;;;;4.15;3.65;;;;;;;16.65;82.09;95031.75;5117937;28;20254;-65
2023/09/05 03:14:24;;;;;;;7.03;4.95;;;;;;;16.61;81.97;95029.75;5117995;28;20224;-65
2023/09/05 03:16:50;;;;;;;7.53;5.57;;;;;;;16.60;82.48;95033.72;5117927;28;20203;-65
2023/09/05 03:19:21;;;;;;;5.32;4.18;;;;;;;16.58;82.15;95038.88;5119934;27;20191;-65
2023/09/05 03:21:48;;;;;;;4.40;4.00;;;;;;;16.58;82.17;95035.31;5139851;27;20509;-65
2023/09/05 03:24:18;;;;;;;4.10;3.70;;;;;;;16.54;82.20;95040.84;5139679;27;20630;-65
2023/09/05 03:26:46;;;;;;;5.65;4.53;;;;;;;16.53;82.21;95046.81;5121762;27;20222;-64
2023/09/05 03:29:13;;;;;;;6.18;5.00;;;;;;;16.53;82.43;95050.41;5139760;27;20227;-64
2023/09/05 03:31:40;;;;;;;9.20;6.40;;;;;;;16.54;82.29;95049.22;5139928;27;20191;-65
2023/09/05 03:34:07;;;;;;;6.22;5.20;;;;;;;16.52;82.82;95065.53;5139921;27;20190;-64
2023/09/05 03:36:34;;;;;;;4.38;4.05;;;;;;;16.53;83.13;95058.75;5121620;27;20183;-64
2023/09/05 03:39:01;;;;;;;4.57;4.18;;;;;;;16.55;83.00;95064.72;5121658;27;20195;-64
2023/09/05 03:41:28;;;;;;;8.00;4.15;;;;;;;16.55;82.91;95069.50;5139333;27;20270;-64
2023/09/05 03:43:56;;;;;;;5.90;5.35;;;;;;;16.54;82.97;95065.91;5139683;27;20195;-64
2023/09/05 03:46:23;;;;;;;7.05;6.03;;;;;;;16.52;82.53;95078.63;5139342;27;20183;-64
2023/09/05 03:48:50;;;;;;;7.88;7.13;;;;;;;16.52;82.82;95068.31;5139453;27;20221;-64
2023/09/05 03:51:17;;;;;;;8.63;7.72;;;;;;;16.54;82.36;95071.47;5121495;27;20199;-64
2023/09/05 03:53:44;;;;;;;8.10;7.40;;;;;;;16.55;82.06;95066.72;5139466;27;20195;-64
2023/09/05 03:56:11;;;;;;;8.10;7.38;;;;;;;16.52;81.58;95068.31;5139466;27;20195;-64
2023/09/05 03:58:38;;;;;;;7.45;6.85;;;;;;;16.55;81.12;95069.50;5139302;27;20202;-65
2023/09/05 04:01:13;;;;;;;8.30;7.60;;;;;;;16.57;81.41;95067.13;5139686;27;20302;-65
2023/09/05 04:03:40;;;;;;;8.93;8.13;;;;;;;16.57;80.59;95062.34;5121028;27;20202;-65
2023/09/05 04:06:06;;;;;;;8.43;7.72;;;;;;;16.56;80.59;95069.13;5121345;27;20210;-66
2023/09/05 04:08:33;;;;;;;7.40;6.80;;;;;;;16.56;80.38;95060.75;5120742;27;20526;-66
2023/09/05 04:11:01;;;;;;;8.35;7.63;;;;;;;16.61;80.49;95065.16;5139048;27;20206;-66
2023/09/05 04:13:28;;;;;;;8.63;7.72;;;;;;;16.64;80.32;95064.38;5120925;27;20626;-66
2023/09/05 04:15:55;;;;;;;7.75;7.07;;;;;;;16.68;80.63;95069.94;5120822;27;20202;-65
2023/09/05 04:18:23;;;;;;;7.80;7.20;;;;;;;17.01;79.46;95061.31;5138664;27;20195;-65
2023/09/05 04:20:56;;;;;;;6.75;6.05;;;;;;;17.11;77.91;95064.53;5139053;27;20194;-65
2023/09/05 04:23:23;;;;;;;7.90;7.20;;;;;;;17.26;77.13;95080.88;5120665;27;20223;-65
2023/09/05 04:25:57;;;;;;;7.82;7.07;;;;;;;17.27;76.84;95076.09;5138993;27;20252;-65
2023/09/05 04:28:24;;;;;;;9.43;8.40;;;;;;;17.31;76.50;95082.47;5138325;27;20219;-65
2023/09/05 04:30:51;;;;;;;8.57;7.88;;;;;;;17.28;76.41;95078.50;5119852;27;20278;-65
2023/09/05 04:33:18;;;;;;;7.95;7.22;;;;;;;17.23;76.88;95072.50;5138607;27;20542;-65
2023/09/05 04:35:46;;;;;;;8.35;7.57;;;;;;;17.46;75.09;95072.13;5138513;27;20198;-65
2023/09/05 04:38:13;;;;;;;8.15;7.45;;;;;;;17.57;74.40;95081.28;5120575;27;20252;-65
2023/09/05 04:40:40;;;;;;;7.95;7.25;;;;;;;17.68;73.64;95076.50;5120284;27;20211;-65
2023/09/05 04:43:07;;;;;;;9.30;8.57;;;;;;;17.74;74.01;95071.34;5103358;27;20207;-66
2023/09/05 04:45:34;;;;;;;9.38;8.50;;;;;;;17.52;74.57;95070.56;5120439;27;20206;-65
2023/09/05 04:48:01;;;;;;;9.75;8.93;;;;;;;17.35;75.74;95066.53;5138053;27;20276;-67
2023/09/05 04:50:28;;;;;;;8.55;7.85;;;;;;;17.23;76.50;95069.72;5137928;27;20191;-67
2023/09/05 04:52:56;;;;;;;8.93;8.13;;;;;;;17.11;77.17;95070.13;5120440;27;20210;-66
2023/09/05 04:55:23;;;;;;;9.10;8.40;;;;;;;17.04;77.30;95073.69;5120253;27;20191;-66
2023/09/05 04:57:50;;;;;;;9.10;8.30;;;;;;;16.97;77.93;95066.09;5119903;27;20202;-67
2023/09/05 05:00:18;;;;;;;9.18;8.38;;;;;;;16.94;77.73;95066.09;5120175;27;20195;-66
2023/09/05 05:02:45;;;;;;;9.95;9.05;;;;;;;16.91;77.82;95062.09;5120740;27;20259;-67
2023/09/05 05:05:12;;;;;;;11.32;10.43;;;;;;;16.84;78.28;95071.22;5119693;27;20203;-66
2023/09/05 05:07:39;;;;;;;11.02;10.02;;;;;;;16.75;78.24;95073.59;5137878;27;20199;-66
2023/09/05 05:10:09;;;;;;;10.40;9.50;;;;;;;16.75;78.59;95081.16;5137678;27;20667;-66
2023/09/05 05:12:35;;;;;;;9.57;8.55;;;;;;;16.78;78.34;95072.81;5119837;27;20199;-69
2023/09/05 05:15:02;;;;;;;9.48;8.50;;;;;;;16.81;78.31;95074.00;5137904;27;20194;-66
2023/09/05 05:17:30;;;;;;;9.48;8.68;;;;;;;16.82;78.44;95089.53;5119582;27;20260;-67
2023/09/05 05:19:57;;;;;;;9.63;8.80;;;;;;;16.74;78.20;95090.69;5119627;27;20202;-66
2023/09/05 05:22:24;;;;;;;9.55;8.65;;;;;;;16.76;78.32;95083.53;5119292;27;20199;-67
2023/09/05 05:24:51;;;;;;;9.43;8.63;;;;;;;16.77;78.45;95082.34;5120216;27;20191;-67
2023/09/05 05:27:19;;;;;;;9.98;9.07;;;;;;;16.82;78.62;95090.31;5119693;27;20195;-66
2023/09/05 05:29:46;;;;;;;8.68;7.88;;;;;;;16.85;78.30;95083.19;5119105;27;20238;-66
2023/09/05 05:32:13;;;;;;;9.40;8.50;;;;;;;16.94;78.62;95080.00;5119706;27;20191;-66
2023/09/05 05:34:40;;;;;;;9.65;8.85;;;;;;;16.94;78.54;95083.59;5119439;27;20194;-66
2023/09/05 05:37:06;;;;;;;9.55;8.52;;;;;;;16.96;78.28;95078.44;5119281;27;20251;-66
2023/09/05 05:39:33;;;;;;;9.07;8.27;;;;;;;16.96;78.51;95080.44;5137207;27;20255;-66
2023/09/05 05:42:00;;;;;;;10.05;9.15;;;;;;;17.00;77.59;95084.81;5136954;27;20585;-66
2023/09/05 05:44:28;;;;;;;10.43;9.52;;;;;;;17.05;77.28;95086.41;5119213;27;20201;-66
2023/09/05 05:46:57;;;;;;;10.07;9.18;;;;;;;17.09;77.22;95098.34;5137263;27;20168;-66
2023/09/05 05:49:29;;;;;;;10.13;9.23;;;;;;;17.06;76.92;95083.22;5119009;27;20309;-66
2023/09/05 05:51:56;;;;;;;9.27;8.38;;;;;;;17.07;76.93;95084.03;5119022;27;20194;-66
2023/09/05 05:54:23;;;;;;;10.45;9.50;;;;;;;17.09;76.96;95084.44;5119121;27;20198;-68
2023/09/05 05:56:50;;;;;;;11.25;10.15;;;;;;;17.07;77.04;95084.84;5137308;27;20187;-66
2023/09/05 05:59:17;;;;;;;10.88;9.93;;;;;;;17.09;77.50;95092.78;5137085;27;20194;-66
2023/09/05 06:01:45;;;;;;;10.35;9.38;;;;;;;17.15;77.05;95096.00;5136779;27;20183;-66
2023/09/05 06:04:15;;;;;;;9.65;8.75;;;;;;;17.14;76.61;95095.19;5118896;27;20251;-66
2023/09/05 06:06:42;;;;;;;11.02;10.02;;;;;;;17.13;76.09;95093.59;5136864;27;20218;-66
2023/09/05 06:09:09;;;;;;;10.27;9.48;;;;;;;17.12;76.12;95094.00;5119112;27;20210;-66
2023/09/05 06:11:36;;;;;;;10.85;9.85;;;;;;;17.13;76.57;95088.00;5136761;27;20214;-66
2023/09/05 06:14:03;;;;;;;10.20;9.35;;;;;;;17.18;76.02;95092.41;5119009;27;20196;-66
2023/09/05 06:16:30;;;;;;;11.45;10.45;;;;;;;17.18;76.30;95092.41;5118971;27;20198;-66
2023/09/05 06:18:58;;;;;;;10.10;9.30;;;;;;;17.17;75.60;95088.03;5118836;27;20206;-66
2023/09/05 06:21:25;;;;;;;10.45;9.55;;;;;;;17.22;76.12;95079.28;5136907;27;20198;-66
2023/09/05 06:23:52;;;;;;;10.88;9.98;;;;;;;17.27;76.44;95090.81;5119120;27;20203;-65
2023/09/05 06:26:19;;;;;;;10.60;9.60;;;;;;;17.31;76.50;95097.19;5118880;27;20198;-65
2023/09/05 06:28:47;;;;;;;10.27;9.38;;;;;;;17.34;76.44;95090.06;5118398;27;20234;-65
2023/09/05 06:31:14;;;;;;;10.38;9.40;;;;;;;17.36;76.37;95086.84;5118658;27;20271;-66
2023/09/05 06:33:40;;;;;;;9.50;8.75;;;;;;;17.39;76.33;95097.22;5136564;27;20603;-66
2023/09/05 06:36:11;;;;;;;10.50;9.70;;;;;;;17.34;75.93;95092.84;5136606;27;20232;-66
2023/09/05 06:38:37;;;;;;;10.15;9.25;;;;;;;17.27;76.27;95099.19;5118052;27;20252;-66
2023/09/05 06:41:07;;;;;;;10.32;9.38;;;;;;;17.13;76.11;95103.94;5136337;27;20191;-66
2023/09/05 06:43:34;;;;;;;9.77;8.77;;;;;;;17.07;76.62;95100.75;5136365;27;20190;-65
2023/09/05 06:46:02;;;;;;;9.95;9.05;;;;;;;17.11;76.70;95101.56;5136357;27;20201;-65
2023/09/05 06:48:29;;;;;;;11.02;9.98;;;;;;;17.15;76.95;95101.56;5117749;28;20214;-65
2023/09/05 06:50:56;;;;;;;9.95;8.95;;;;;;;17.11;76.83;95104.34;5136552;28;20270;-65
2023/09/05 06:53:24;;;;;;;10.40;9.50;;;;;;;17.16;76.96;95097.59;5135705;27;20183;-65
2023/09/05 06:55:51;;;;;;;10.40;9.50;;;;;;;17.20;77.08;95093.59;5118176;28;20197;-65
2023/09/05 06:58:18;;;;;;;9.30;8.50;;;;;;;17.21;76.08;95091.59;5118082;28;20205;-65
2023/09/05 07:00:45;;;;;;;8.93;8.13;;;;;;;17.22;76.48;95112.72;5118066;28;20191;-65
2023/09/05 07:03:13;;;;;;;10.90;8.70;;;;;;;17.18;76.54;95101.56;5135960;28;20195;-65
2023/09/05 07:05:41;;;;;;;9.05;8.15;;;;;;;17.23;76.64;95103.97;5118514;28;20195;-65
2023/09/05 07:08:07;;;;;;;8.88;8.07;;;;;;;17.25;76.13;95098.00;5136046;28;20211;-65
2023/09/05 07:10:35;;;;;;;9.52;8.73;;;;;;;17.27;76.19;95099.19;5117906;28;20565;-65
2023/09/05 07:13:02;;;;;;;9.13;8.23;;;;;;;17.30;75.52;95117.13;5117974;28;20681;-65
2023/09/05 07:15:29;;;;;;;9.68;8.82;;;;;;;17.27;75.91;95126.28;5136053;28;20198;-65
2023/09/05 07:17:55;;;;;;;8.90;8.20;;;;;;;17.28;76.06;95123.09;5118205;28;20244;-65
2023/09/05 07:20:22;;;;;;;8.45;7.72;;;;;;;17.29;76.21;95133.06;5135633;28;20183;-65
2023/09/05 07:22:49;;;;;;;8.43;7.80;;;;;;;17.36;76.11;95131.44;5136002;28;20190;-65
2023/09/05 07:25:16;;;;;;;9.02;8.23;;;;;;;17.42;75.46;95135.47;5135595;28;20656;-65
2023/09/05 07:27:44;;;;;;;9.95;9.05;;;;;;;17.51;75.69;95136.69;5118086;28;20218;-65
2023/09/05 07:30:11;;;;;;;8.20;7.50;;;;;;;17.52;75.19;95137.47;5135427;27;20230;-65
2023/09/05 07:32:39;;;;;;;8.15;7.55;;;;;;;17.53;74.74;95142.63;5135760;28;20195;-65
2023/09/05 07:35:06;;;;;;;7.13;6.53;;;;;;;17.48;75.80;95145.03;5117816;28;20191;-65
2023/09/05 07:37:33;;;;;;;8.48;7.68;;;;;;;17.59;74.42;95153.41;5117974;28;20203;-65
2023/09/05 07:40:00;;;;;;;8.52;7.70;;;;;;;17.56;74.48;95155.78;5117638;28;20198;-65
2023/09/05 07:42:28;;;;;;;8.32;7.50;;;;;;;17.54;74.13;95157.41;5117724;28;20221;-65
2023/09/05 07:44:57;;;;;;;8.30;7.60;;;;;;;17.44;74.52;95174.91;5118407;28;20248;-65
2023/09/05 07:47:24;;;;;;;7.95;7.25;;;;;;;17.33;74.67;95174.88;5118029;28;20202;-65
2023/09/05 07:49:51;;;;;;;7.30;6.70;;;;;;;17.20;74.97;95170.84;5135711;28;20203;-65
2023/09/05 07:52:18;;;;;;;7.50;6.90;;;;;;;17.09;75.56;95176.38;5135640;28;20192;-65
2023/09/05 07:54:44;;;;;;;7.60;6.93;;;;;;;17.08;75.20;95178.38;5117644;28;20191;-65
2023/09/05 07:57:11;;;;;;;7.75;7.05;;;;;;;17.05;75.78;95173.56;5135675;28;20187;-65
2023/09/05 07:59:38;;;;;;;7.95;7.22;;;;;;;17.11;75.71;95167.66;5135736;28;20183;-65
2023/09/05 08:02:06;;;;;;;7.95;7.25;;;;;;;17.15;75.66;95166.47;5135588;28;20211;-65
2023/09/05 08:04:33;;;;;;;9.00;8.20;;;;;;;17.20;75.71;95168.06;5117091;27;20214;-65
2023/09/05 08:07:00;;;;;;;8.93;8.23;;;;;;;17.21;74.99;95166.84;5119925;27;20195;-65
2023/09/05 08:09:27;;;;;;;8.20;7.50;;;;;;;17.12;75.49;95170.03;5121394;27;20218;-65
2023/09/05 08:11:53;;;;;;;8.55;7.85;;;;;;;17.18;75.71;95162.88;5139256;27;20187;-65
2023/09/05 08:14:20;;;;;;;7.97;7.30;;;;;;;17.21;75.21;95173.25;5121058;27;20179;-65
2023/09/05 08:16:47;;;;;;;8.70;7.97;;;;;;;17.26;75.46;95160.91;5120983;27;20199;-65
2023/09/05 08:19:15;;;;;;;7.47;6.88;;;;;;;17.36;75.25;95157.38;5120670;27;20202;-65
2023/09/05 08:21:41;;;;;;;8.15;7.45;;;;;;;17.46;75.46;95162.16;5138960;27;20191;-65
2023/09/05 08:24:09;;;;;;;11.30;10.25;;;;;;;17.58;74.75;95161.00;5120987;27;20187;-65
2023/09/05 08:26:36;;;;;;;8.63;7.75;;;;;;;17.56;73.95;95171.72;5120692;27;20220;-65
2023/09/05 08:29:03;;;;;;;8.77;7.97;;;;;;;17.63;73.91;95168.97;5138613;27;20231;-65
2023/09/05 08:31:30;;;;;;;9.02;8.23;;;;;;;17.75;74.11;95178.94;5138781;27;20222;-65
2023/09/05 08:33:57;;;;;;;7.85;7.05;;;;;;;17.76;73.46;95169.41;5138814;27;20188;-65
2023/09/05 08:36:25;;;;;;;8.43;7.63;;;;;;;17.91;73.73;95181.38;5120667;27;20210;-65
2023/09/05 08:38:52;;;;;;;9.38;7.05;;;;;;;17.96;73.09;95170.63;5138297;27;20191;-65
2023/09/05 08:41:19;;;;;;;7.82;7.13;;;;;;;17.98;71.94;95176.59;5120901;27;20198;-65
2023/09/05 08:43:46;;;;;;;7.70;6.93;;;;;;;18.03;71.62;95181.78;5138589;27;20244;-65
2023/09/05 08:46:14;;;;;;;8.52;7.82;;;;;;;17.96;71.15;95178.97;5120479;27;20222;-65
2023/09/05 08:48:41;;;;;;;7.93;7.20;;;;;;;17.93;71.25;95171.41;5138128;27;20206;-65
2023/09/05 08:51:11;;;;;;;8.07;7.40;;;;;;;17.88;70.78;95182.19;5120782;27;20210;-65
2023/09/05 08:53:42;;;;;;;7.53;6.82;;;;;;;17.91;71.50;95181.38;5120703;27;20191;-65
2023/09/05 08:56:09;;;;;;;7.00;6.32;;;;;;;17.91;70.95;95176.59;5120531;27;20179;-65
2023/09/05 08:58:36;;;;;;;7.20;6.50;;;;;;;17.95;70.47;95177.41;5120104;27;20260;-65
2023/09/05 09:01:03;;;;;;;8.98;6.55;;;;;;;17.96;71.06;95183.78;5138339;27;20206;-65
2023/09/05 09:03:30;;;;;;;7.70;7.00;;;;;;;18.03;70.32;95187.34;5120444;27;20206;-65
2023/09/05 09:05:57;;;;;;;7.65;6.43;;;;;;;18.16;70.00;95179.41;5119982;27;20281;-65
2023/09/05 09:08:24;;;;;;;6.90;6.30;;;;;;;18.40;69.45;95176.97;5119968;27;20210;-65
2023/09/05 09:11:06;;;;;;;8.18;6.30;;;;;;;18.71;68.47;95172.56;5119618;27;20201;-65
2023/09/05 09:13:33;;;;;;;6.70;5.97;;;;;;;18.91;66.46;95184.06;5119857;27;20244;-65
2023/09/05 09:16:01;;;;;;;10.00;6.75;;;;;;;19.09;65.82;95184.00;5120044;27;20265;-65
2023/09/05 09:18:31;;;;;;;6.70;6.10;;;;;;;19.19;65.51;95186.78;5119529;27;20220;-65
2023/09/05 09:21:00;;;;;;;6.97;6.28;;;;;;;19.30;65.23;95175.53;5120376;27;20195;-65
2023/09/05 09:23:28;;;;;;;6.78;5.80;;;;;;;19.37;64.03;95169.91;5137414;27;20613;-65
2023/09/05 09:25:55;;;;;;;6.40;5.85;;;;;;;19.47;65.31;95173.88;5119995;27;20210;-65
2023/09/05 09:28:26;;;;;;;6.68;5.93;;;;;;;19.53;63.47;95168.63;5119329;27;20210;-65
2023/09/05 09:30:57;;;;;;;6.35;5.85;;;;;;;19.58;63.10;95159.81;5137594;27;20195;-65
2023/09/05 09:33:24;;;;;;;6.57;5.80;;;;;;;19.70;63.30;95168.53;5119510;27;20198;-66
2023/09/05 09:36:04;;;;;;;5.95;5.45;;;;;;;19.76;61.85;95166.13;5137580;27;20198;-65
2023/09/05 09:38:31;;;;;;;5.90;5.40;;;;;;;19.79;62.27;95167.28;5137485;27;20179;-65
2023/09/05 09:41:00;;;;;;;7.32;6.13;;;;;;;19.84;62.06;95169.66;5119067;27;20207;-65
2023/09/05 09:43:29;;;;;;;6.22;5.72;;;;;;;19.88;62.97;95160.03;5137445;27;20186;-65
2023/09/05 09:45:57;;;;;;;5.85;5.45;;;;;;;20.04;62.14;95164.31;5137292;27;20255;-65
2023/09/05 09:48:27;;;;;;;6.88;6.25;;;;;;;20.14;61.23;95163.44;5137179;27;20198;-65
2023/09/05 09:50:55;;;;;;;6.30;5.70;;;;;;;20.26;61.27;95156.53;5137263;27;20533;-65
2023/09/05 09:53:29;;;;;;;6.35;5.80;;;;;;;20.41;59.72;95158.00;5118892;27;20310;-65
2023/09/05 09:55:56;;;;;;;8.00;7.30;;;;;;;20.33;59.96;95159.25;5118942;27;20203;-65
2023/09/05 09:58:24;;;;;;;6.13;5.38;;;;;;;20.36;61.50;95152.84;5137012;27;20191;-65
2023/09/05 10:00:52;;;;;;;5.85;5.43;;;;;;;20.50;60.40;95157.53;5137116;27;20512;-65
2023/09/05 10:03:20;;;;;;;6.10;5.68;;;;;;;20.46;59.77;95154.75;5136926;27;20190;-65
2023/09/05 10:05:47;;;;;;;5.75;5.35;;;;;;;20.60;59.62;95154.63;5119142;27;20198;-65
2023/09/05 10:08:13;;;;;;;6.63;5.47;;;;;;;20.64;58.06;95141.38;5118483;27;20209;-65
2023/09/05 10:10:41;;;;;;;6.03;5.53;;;;;;;20.57;56.89;95147.06;5136849;27;20275;-65
2023/09/05 10:13:09;;;;;;;6.50;4.90;;;;;;;20.53;56.04;95146.31;5136916;27;20179;-65
2023/09/05 10:15:37;;;;;;;4.95;4.50;;;;;;;20.61;57.06;95145.00;5118771;27;20199;-65
2023/09/05 10:18:09;;;;;;;6.20;5.60;;;;;;;20.79;56.22;95138.44;5118844;27;20199;-65
2023/09/05 10:20:37;;;;;;;5.55;5.05;;;;;;;20.83;56.33;95150.38;5136271;27;20610;-65
2023/09/05 10:23:05;;;;;;;5.05;4.63;;;;;;;20.98;57.12;95151.03;5136655;27;20187;-65
2023/09/05 10:25:32;;;;;;;5.72;5.22;;;;;;;21.07;55.28;95151.31;5118734;28;20281;-65
2023/09/05 10:27:59;;;;;;;5.90;5.00;;;;;;;21.01;54.80;95150.19;5136379;27;20199;-65
2023/09/05 10:30:25;;;;;;;6.00;5.05;;;;;;;20.94;54.54;95141.84;5117656;27;20239;-65
2023/09/05 10:32:53;;;;;;;6.35;4.88;;;;;;;20.81;54.91;95150.81;5119050;27;20186;-65
2023/09/05 10:35:22;;;;;;;5.40;4.80;;;;;;;20.83;55.38;95148.38;5136452;27;20183;-65
2023/09/05 10:37:53;;;;;;;5.20;4.70;;;;;;;20.99;53.52;95159.03;5118396;27;20195;-65
2023/09/05 10:40:33;;;;;;;5.30;4.57;;;;;;;20.95;54.62;95158.25;5135703;27;20214;-65
2023/09/05 10:43:02;;;;;;;5.50;5.00;;;;;;;20.97;53.68;95161.44;5118689;28;20191;-65
2023/09/05 10:45:33;;;;;;;5.00;4.55;;;;;;;21.01;54.66;95162.19;5136363;27;20179;-65
2023/09/05 10:48:12;;;;;;;4.95;4.50;;;;;;;21.00;53.50;95157.00;5118268;27;20260;-65
2023/09/05 10:51:13;;;;;;;4.82;4.53;;;;;;;21.00;54.52;95159.81;5117745;27;20210;-65
2023/09/05 10:53:40;;;;;;;5.63;4.82;;;;;;;21.16;53.23;95149.59;5073233;28;20224;-65
2023/09/05 10:56:41;;;;;;;4.68;4.28;;;;;;;21.31;53.70;95152.22;5123008;28;20202;-65
2023/09/05 10:59:10;;;;;;;4.93;4.43;;;;;;;21.42;52.40;95158.50;5118645;28;20199;-65
2023/09/05 11:01:48;;;;;;;4.78;4.38;;;;;;;21.29;52.74;95149.84;5136282;28;20183;-65
2023/09/05 11:04:29;;;;;;;4.95;4.55;;;;;;;21.39;52.86;95153.75;5118196;28;20199;-65
2023/09/05 11:07:17;;;;;;;5.78;4.40;;;;;;;21.34;52.37;95149.38;5118201;28;20668;-65
2023/09/05 11:09:48;;;;;;;5.63;4.25;;;;;;;21.41;52.88;95147.72;5123630;28;20234;-65
2023/09/05 11:12:15;;;;;;;5.70;4.60;;;;;;;21.44;51.79;95155.28;5136080;28;20270;-65
2023/09/05 11:14:42;;;;;;;4.93;4.53;;;;;;;21.50;52.32;95151.59;5117924;28;20207;-65
2023/09/05 11:17:13;;;;;;;6.20;5.13;;;;;;;21.62;52.49;95153.81;5136204;28;20256;-65
2023/09/05 11:19:42;;;;;;;5.40;4.40;;;;;;;21.77;51.71;95148.78;5135585;28;20187;-65
2023/09/05 11:22:11;;;;;;;5.40;4.90;;;;;;;21.84;51.08;95142.28;5135913;28;20183;-65
2023/09/05 11:24:45;;;;;;;7.03;4.57;;;;;;;21.81;49.96;95145.94;5117944;28;20209;-65
2023/09/05 11:27:13;;;;;;;4.57;4.18;;;;;;;21.89;50.50;95124.94;5136287;28;20191;-65
2023/09/05 11:29:42;;;;;;;5.45;4.05;;;;;;;21.83;50.26;95129.47;5135432;28;20231;-65
2023/09/05 11:32:13;;;;;;;4.28;3.85;;;;;;;21.73;50.88;95139.63;5117861;28;20199;-65
2023/09/05 11:34:41;;;;;;;4.82;4.22;;;;;;;21.80;50.97;95147.16;5135918;28;20213;-65
2023/09/05 11:37:08;;;;;;;5.20;4.30;;;;;;;21.83;51.40;95144.31;5117775;28;20223;-65